Frem Nordica — OVIL2 — position and weather

sailwx.info

Track history (hours):
 
Tides and Currents Weather Stations Pressure Air Temp Water Temp Dewpoint Dewpoint Depression Visibility Wind Speed Wind Dir Waves Ship Positions

Frem Nordica

Last reported at 2015-Aug-30 07:33 UTC. Time now 2015-Sep-01 03:59 UTC.
Position N 55°13' E 012°10'.

Length 79 m; draft 3.5 m.

MMSI: 220439000.

Date/timePositionNaut miles runAvg speedWind from/ knotsBaromVisibWave heightAir tempDewpointWater temp
2015-Aug-30 07:33N 55°13' E 012°10'0 0.0
2015-Aug-30 06:33N 55°13' E 012°10'0 0.0
2015-Aug-30 05:33N 55°13' E 012°10'0 0.0
2015-Aug-30 04:21N 55°13' E 012°10'0 0.0
2015-Aug-30 03:09N 55°13' E 012°10'0 0.0
2015-Aug-30 02:33N 55°13' E 012°10'0 0.0
2015-Aug-29 19:27N 55°13' E 012°10'2 0.0
2015-Aug-28 06:14N 55°12' E 012°11'4 6.4
2015-Aug-28 05:33N 55°11' E 012°19'8 7.8
2015-Aug-28 04:32N 55°09' E 012°32'8 7.8
2015-Aug-28 03:33N 55°09' E 012°46'40 8.0
2015-Aug-27 22:32N 55°14' E 013°56'8 8.1
2015-Aug-27 21:33N 55°14' E 014°10'7 7.1
2015-Aug-27 20:33N 55°17' E 014°21'8 8.1
2015-Aug-27 19:33N 55°23' E 014°30'8 7.9
2015-Aug-27 18:33N 55°29' E 014°40'8 7.8
2015-Aug-27 17:33N 55°32' E 014°52'8 7.5
2015-Aug-27 16:33N 55°36' E 015°04'17 7.6
2015-Aug-27 14:16N 55°42' E 015°33'51 7.1
2015-Aug-27 07:06N 56°13' E 016°46'5 7.8
2015-Aug-27 06:31N 56°17' E 016°49'8 8.0
2015-Aug-27 05:32N 56°24' E 016°54'17 8.1
2015-Aug-27 03:27N 56°40' E 017°04'7 8.4
2015-Aug-27 02:33N 56°47' E 017°09'8 8.2
2015-Aug-27 01:33N 56°55' E 017°15'8 8.3
2015-Aug-27 00:33N 57°03' E 017°20'8 8.3
2015-Aug-26 23:33N 57°10' E 017°26'8 8.2
2015-Aug-26 22:34N 57°18' E 017°31'77 2.0
2015-Aug-25 08:08N 56°05' E 018°15'6 9.3
2015-Aug-25 07:30N 55°59' E 018°18'9 9.4
2015-Aug-25 06:33N 55°51' E 018°23'9 9.4
2015-Aug-25 05:33N 55°42' E 018°29'9 9.1
2015-Aug-25 04:33N 55°33' E 018°32'9 9.4
2015-Aug-25 03:33N 55°24' E 018°37'10 9.5
2015-Aug-25 02:33N 55°15' E 018°43'9 9.4
2015-Aug-25 01:33N 55°06' E 018°48'9 9.3
2015-Aug-25 00:33N 54°57' E 018°53'9 9.4
2015-Aug-24 23:33N 54°48' E 018°58'9 9.1
2015-Aug-24 22:33N 54°39' E 018°57'10 9.6
2015-Aug-24 21:33N 54°31' E 018°48'8 8.1
2015-Aug-24 20:33N 54°24' E 018°40'2 2.5
2015-Aug-24 19:33N 54°22' E 018°40'0 0.0
2015-Aug-24 18:33N 54°22' E 018°40'0 0.0
2015-Aug-24 17:33N 54°22' E 018°40'0 0.0
2015-Aug-24 16:33N 54°22' E 018°40'0 0.0
2015-Aug-24 15:33N 54°22' E 018°40'0 0.0
2015-Aug-24 14:33N 54°22' E 018°40'0 0.0
2015-Aug-24 13:33N 54°22' E 018°40'0 0.0
2015-Aug-24 12:33N 54°22' E 018°40'0 0.0
2015-Aug-24 11:27N 54°22' E 018°40'0 0.0
2015-Aug-24 10:27N 54°22' E 018°40'0 0.0
2015-Aug-24 09:27N 54°22' E 018°40'0 0.0
2015-Aug-24 08:30N 54°22' E 018°40'0 0.0
2015-Aug-24 07:33N 54°22' E 018°40'0 0.0
2015-Aug-24 06:33N 54°22' E 018°40'0 0.0
2015-Aug-24 05:30N 54°22' E 018°40'0 0.0
2015-Aug-24 04:27N 54°22' E 018°40'0 0.0
2015-Aug-24 03:33N 54°22' E 018°40'0 0.0
2015-Aug-24 02:33N 54°22' E 018°40'0 0.0
2015-Aug-24 01:33N 54°22' E 018°40'0 0.0
2015-Aug-24 00:33N 54°22' E 018°40'0 0.0
2015-Aug-23 23:30N 54°22' E 018°40'0 0.0
2015-Aug-23 22:33N 54°22' E 018°40'0 0.0
2015-Aug-23 21:33N 54°22' E 018°40'0 0.0
2015-Aug-23 20:33N 54°22' E 018°40'0 0.0
2015-Aug-23 19:33N 54°22' E 018°40'0 0.0
2015-Aug-23 18:33N 54°22' E 018°40'0 0.0
2015-Aug-23 17:33N 54°22' E 018°40'0 0.0
2015-Aug-23 16:30N 54°22' E 018°40'0 0.0
2015-Aug-23 15:33N 54°22' E 018°40'0 0.0
2015-Aug-23 14:30N 54°22' E 018°40'0 0.0
2015-Aug-23 13:33N 54°22' E 018°40'0 0.0
2015-Aug-23 12:33N 54°22' E 018°40'0 0.0
2015-Aug-23 11:33N 54°22' E 018°40'0 0.0
2015-Aug-23 10:33N 54°22' E 018°40'0 0.0
2015-Aug-23 09:30N 54°22' E 018°40'0 0.0
2015-Aug-23 08:30N 54°22' E 018°40'0 0.0
2015-Aug-23 07:33N 54°22' E 018°40'0 0.0
2015-Aug-23 06:30N 54°22' E 018°40'0 0.0
2015-Aug-23 05:33N 54°22' E 018°40'0 0.0
2015-Aug-23 04:30N 54°22' E 018°40'0 0.0
2015-Aug-23 03:33N 54°22' E 018°40'0 0.0
2015-Aug-23 02:33N 54°22' E 018°40'0 0.0
2015-Aug-23 01:33N 54°22' E 018°40'0 0.0
2015-Aug-23 00:33N 54°22' E 018°40'0 0.0
2015-Aug-22 23:33N 54°22' E 018°40'0 0.0
2015-Aug-22 22:21N 54°22' E 018°40'0 0.0
2015-Aug-22 21:33N 54°22' E 018°40'0 0.0
2015-Aug-22 20:33N 54°22' E 018°40'0 0.0
2015-Aug-22 19:30N 54°22' E 018°40'0 0.0
2015-Aug-22 18:33N 54°22' E 018°40'0 0.0
2015-Aug-22 17:30N 54°22' E 018°40'0 0.0
2015-Aug-22 16:33N 54°22' E 018°40'0 0.0
2015-Aug-22 15:33N 54°22' E 018°40'0 0.0
2015-Aug-22 14:33N 54°22' E 018°40'0 0.0
2015-Aug-22 13:33N 54°22' E 018°40'0 0.0
2015-Aug-22 12:33N 54°22' E 018°40'0 0.0
2015-Aug-22 11:33N 54°22' E 018°40'0 0.0
2015-Aug-22 10:33N 54°22' E 018°40'0 0.0
2015-Aug-22 09:30N 54°22' E 018°40'0 0.0
2015-Aug-22 08:30N 54°22' E 018°40'0 0.0
2015-Aug-22 07:30N 54°22' E 018°40'0 0.0
2015-Aug-22 06:33N 54°22' E 018°40'0 0.0
2015-Aug-22 05:24N 54°22' E 018°40'0 0.0
2015-Aug-22 04:28N 54°22' E 018°40'2 2.6
2015-Aug-22 03:33N 54°24' E 018°41'6 5.8
2015-Aug-22 02:33N 54°30' E 018°44'6 6.1
2015-Aug-22 01:33N 54°34' E 018°51'6 5.9
2015-Aug-22 00:33N 54°39' E 018°56'6 6.0
2015-Aug-21 23:33N 54°45' E 018°58'6 6.1
2015-Aug-21 22:33N 54°49' E 018°50'6 6.1
2015-Aug-21 21:33N 54°53' E 018°42'6 6.2
2015-Aug-21 20:33N 54°57' E 018°33'6 6.4
2015-Aug-21 19:33N 54°57' E 018°22'7 6.8
2015-Aug-21 18:33N 54°57' E 018°10'7 7.1
2015-Aug-21 17:33N 54°57' E 017°58'7 7.3
2015-Aug-21 16:33N 54°56' E 017°45'8 7.6
2015-Aug-21 15:33N 54°54' E 017°32'8 7.5
2015-Aug-21 14:33N 54°52' E 017°20'82 7.8
2015-Aug-21 04:07N 54°46' E 014°58'4 7.9
2015-Aug-21 03:33N 54°46' E 014°50'8 7.9
2015-Aug-21 02:33N 54°46' E 014°37'8 7.7
2015-Aug-21 01:33N 54°49' E 014°24'8 7.8
2015-Aug-21 00:33N 54°51' E 014°11'7 7.3
2015-Aug-20 23:33N 54°53' E 013°59'7 7.1
2015-Aug-20 22:33N 54°55' E 013°47'7 7.4
2015-Aug-20 21:33N 54°58' E 013°35'8 7.7
2015-Aug-20 20:33N 55°00' E 013°22'8 7.9
2015-Aug-20 19:33N 55°03' E 013°09'8 7.8
2015-Aug-20 18:33N 55°05' E 012°56'8 7.9
2015-Aug-20 17:33N 55°08' E 012°43'8 7.8
2015-Aug-20 16:33N 55°10' E 012°30'8 7.9
2015-Aug-20 15:33N 55°11' E 012°17'4 2.8
2015-Aug-20 14:05N 55°13' E 012°10'0 0.0
2015-Aug-20 13:29N 55°13' E 012°10'0 0.0
2015-Aug-20 12:23N 55°13' E 012°10'0 0.0
2015-Aug-20 11:29N 55°13' E 012°10'0 0.0
2015-Aug-20 10:22N 55°13' E 012°10'0 0.0
2015-Aug-20 09:29N 55°13' E 012°10'  
Track history (hours):
 
Tides and Currents Weather Stations Pressure Air Temp Water Temp Dewpoint Dewpoint Depression Visibility Wind Speed Wind Dir Waves Ship Positions

Frem Nordica

Last reported at 2015-Aug-30 07:33 UTC. Time now 2015-Sep-01 03:59 UTC.
Position N 55°13' E 012°10'.

Length 79 m; draft 3.5 m.

MMSI: 220439000.

Date/timePositionNaut miles runAvg speedWind from/ knotsBaromVisibWave heightAir tempDewpointWater temp
2015-Aug-30 07:33N 55°13' E 012°10'0 0.0
2015-Aug-30 06:33N 55°13' E 012°10'0 0.0
2015-Aug-30 05:33N 55°13' E 012°10'0 0.0
2015-Aug-30 04:21N 55°13' E 012°10'0 0.0
2015-Aug-30 03:09N 55°13' E 012°10'0 0.0
2015-Aug-30 02:33N 55°13' E 012°10'0 0.0
2015-Aug-29 19:27N 55°13' E 012°10'2 0.0
2015-Aug-28 06:14N 55°12' E 012°11'4 6.4
2015-Aug-28 05:33N 55°11' E 012°19'8 7.8
2015-Aug-28 04:32N 55°09' E 012°32'8 7.8
2015-Aug-28 03:33N 55°09' E 012°46'40 8.0
2015-Aug-27 22:32N 55°14' E 013°56'8 8.1
2015-Aug-27 21:33N 55°14' E 014°10'7 7.1
2015-Aug-27 20:33N 55°17' E 014°21'8 8.1
2015-Aug-27 19:33N 55°23' E 014°30'8 7.9
2015-Aug-27 18:33N 55°29' E 014°40'8 7.8
2015-Aug-27 17:33N 55°32' E 014°52'8 7.5
2015-Aug-27 16:33N 55°36' E 015°04'17 7.6
2015-Aug-27 14:16N 55°42' E 015°33'51 7.1
2015-Aug-27 07:06N 56°13' E 016°46'5 7.8
2015-Aug-27 06:31N 56°17' E 016°49'8 8.0
2015-Aug-27 05:32N 56°24' E 016°54'17 8.1
2015-Aug-27 03:27N 56°40' E 017°04'7 8.4
2015-Aug-27 02:33N 56°47' E 017°09'8 8.2
2015-Aug-27 01:33N 56°55' E 017°15'8 8.3
2015-Aug-27 00:33N 57°03' E 017°20'8 8.3
2015-Aug-26 23:33N 57°10' E 017°26'8 8.2
2015-Aug-26 22:34N 57°18' E 017°31'77 2.0
2015-Aug-25 08:08N 56°05' E 018°15'6 9.3
2015-Aug-25 07:30N 55°59' E 018°18'9 9.4
2015-Aug-25 06:33N 55°51' E 018°23'9 9.4
2015-Aug-25 05:33N 55°42' E 018°29'9 9.1
2015-Aug-25 04:33N 55°33' E 018°32'9 9.4
2015-Aug-25 03:33N 55°24' E 018°37'10 9.5
2015-Aug-25 02:33N 55°15' E 018°43'9 9.4
2015-Aug-25 01:33N 55°06' E 018°48'9 9.3
2015-Aug-25 00:33N 54°57' E 018°53'9 9.4
2015-Aug-24 23:33N 54°48' E 018°58'9 9.1
2015-Aug-24 22:33N 54°39' E 018°57'10 9.6
2015-Aug-24 21:33N 54°31' E 018°48'8 8.1
2015-Aug-24 20:33N 54°24' E 018°40'2 2.5
2015-Aug-24 19:33N 54°22' E 018°40'0 0.0
2015-Aug-24 18:33N 54°22' E 018°40'0 0.0
2015-Aug-24 17:33N 54°22' E 018°40'0 0.0
2015-Aug-24 16:33N 54°22' E 018°40'0 0.0
2015-Aug-24 15:33N 54°22' E 018°40'0 0.0
2015-Aug-24 14:33N 54°22' E 018°40'0 0.0
2015-Aug-24 13:33N 54°22' E 018°40'0 0.0
2015-Aug-24 12:33N 54°22' E 018°40'0 0.0
2015-Aug-24 11:27N 54°22' E 018°40'0 0.0
2015-Aug-24 10:27N 54°22' E 018°40'0 0.0
2015-Aug-24 09:27N 54°22' E 018°40'0 0.0
2015-Aug-24 08:30N 54°22' E 018°40'0 0.0
2015-Aug-24 07:33N 54°22' E 018°40'0 0.0
2015-Aug-24 06:33N 54°22' E 018°40'0 0.0
2015-Aug-24 05:30N 54°22' E 018°40'0 0.0
2015-Aug-24 04:27N 54°22' E 018°40'0 0.0
2015-Aug-24 03:33N 54°22' E 018°40'0 0.0
2015-Aug-24 02:33N 54°22' E 018°40'0 0.0
2015-Aug-24 01:33N 54°22' E 018°40'0 0.0
2015-Aug-24 00:33N 54°22' E 018°40'0 0.0
2015-Aug-23 23:30N 54°22' E 018°40'0 0.0
2015-Aug-23 22:33N 54°22' E 018°40'0 0.0
2015-Aug-23 21:33N 54°22' E 018°40'0 0.0
2015-Aug-23 20:33N 54°22' E 018°40'0 0.0
2015-Aug-23 19:33N 54°22' E 018°40'0 0.0
2015-Aug-23 18:33N 54°22' E 018°40'0 0.0
2015-Aug-23 17:33N 54°22' E 018°40'0 0.0
2015-Aug-23 16:30N 54°22' E 018°40'0 0.0
2015-Aug-23 15:33N 54°22' E 018°40'0 0.0
2015-Aug-23 14:30N 54°22' E 018°40'0 0.0
2015-Aug-23 13:33N 54°22' E 018°40'0 0.0
2015-Aug-23 12:33N 54°22' E 018°40'0 0.0
2015-Aug-23 11:33N 54°22' E 018°40'0 0.0
2015-Aug-23 10:33N 54°22' E 018°40'0 0.0
2015-Aug-23 09:30N 54°22' E 018°40'0 0.0
2015-Aug-23 08:30N 54°22' E 018°40'0 0.0
2015-Aug-23 07:33N 54°22' E 018°40'0 0.0
2015-Aug-23 06:30N 54°22' E 018°40'0 0.0
2015-Aug-23 05:33N 54°22' E 018°40'0 0.0
2015-Aug-23 04:30N 54°22' E 018°40'0 0.0
2015-Aug-23 03:33N 54°22' E 018°40'0 0.0
2015-Aug-23 02:33N 54°22' E 018°40'0 0.0
2015-Aug-23 01:33N 54°22' E 018°40'0 0.0
2015-Aug-23 00:33N 54°22' E 018°40'0 0.0
2015-Aug-22 23:33N 54°22' E 018°40'0 0.0
2015-Aug-22 22:21N 54°22' E 018°40'0 0.0
2015-Aug-22 21:33N 54°22' E 018°40'0 0.0
2015-Aug-22 20:33N 54°22' E 018°40'0 0.0
2015-Aug-22 19:30N 54°22' E 018°40'0 0.0
2015-Aug-22 18:33N 54°22' E 018°40'0 0.0
2015-Aug-22 17:30N 54°22' E 018°40'0 0.0
2015-Aug-22 16:33N 54°22' E 018°40'0 0.0
2015-Aug-22 15:33N 54°22' E 018°40'0 0.0
2015-Aug-22 14:33N 54°22' E 018°40'0 0.0
2015-Aug-22 13:33N 54°22' E 018°40'0 0.0
2015-Aug-22 12:33N 54°22' E 018°40'0 0.0
2015-Aug-22 11:33N 54°22' E 018°40'0 0.0
2015-Aug-22 10:33N 54°22' E 018°40'0 0.0
2015-Aug-22 09:30N 54°22' E 018°40'0 0.0
2015-Aug-22 08:30N 54°22' E 018°40'0 0.0
2015-Aug-22 07:30N 54°22' E 018°40'0 0.0
2015-Aug-22 06:33N 54°22' E 018°40'0 0.0
2015-Aug-22 05:24N 54°22' E 018°40'0 0.0
2015-Aug-22 04:28N 54°22' E 018°40'2 2.6
2015-Aug-22 03:33N 54°24' E 018°41'6 5.8
2015-Aug-22 02:33N 54°30' E 018°44'6 6.1
2015-Aug-22 01:33N 54°34' E 018°51'6 5.9
2015-Aug-22 00:33N 54°39' E 018°56'6 6.0
2015-Aug-21 23:33N 54°45' E 018°58'6 6.1
2015-Aug-21 22:33N 54°49' E 018°50'6 6.1
2015-Aug-21 21:33N 54°53' E 018°42'6 6.2
2015-Aug-21 20:33N 54°57' E 018°33'6 6.4
2015-Aug-21 19:33N 54°57' E 018°22'7 6.8
2015-Aug-21 18:33N 54°57' E 018°10'7 7.1
2015-Aug-21 17:33N 54°57' E 017°58'7 7.3
2015-Aug-21 16:33N 54°56' E 017°45'8 7.6
2015-Aug-21 15:33N 54°54' E 017°32'8 7.5
2015-Aug-21 14:33N 54°52' E 017°20'82 7.8
2015-Aug-21 04:07N 54°46' E 014°58'4 7.9
2015-Aug-21 03:33N 54°46' E 014°50'8 7.9
2015-Aug-21 02:33N 54°46' E 014°37'8 7.7
2015-Aug-21 01:33N 54°49' E 014°24'8 7.8
2015-Aug-21 00:33N 54°51' E 014°11'7 7.3
2015-Aug-20 23:33N 54°53' E 013°59'7 7.1
2015-Aug-20 22:33N 54°55' E 013°47'7 7.4
2015-Aug-20 21:33N 54°58' E 013°35'8 7.7
2015-Aug-20 20:33N 55°00' E 013°22'8 7.9
2015-Aug-20 19:33N 55°03' E 013°09'8 7.8
2015-Aug-20 18:33N 55°05' E 012°56'8 7.9
2015-Aug-20 17:33N 55°08' E 012°43'8 7.8
2015-Aug-20 16:33N 55°10' E 012°30'8 7.9
2015-Aug-20 15:33N 55°11' E 012°17'4 2.8
2015-Aug-20 14:05N 55°13' E 012°10'0 0.0
2015-Aug-20 13:29N 55°13' E 012°10'0 0.0
2015-Aug-20 12:23N 55°13' E 012°10'0 0.0
2015-Aug-20 11:29N 55°13' E 012°10'0 0.0
2015-Aug-20 10:22N 55°13' E 012°10'0 0.0
2015-Aug-20 09:29N 55°13' E 012°10'  

Dump ship's entire track history